createdAt,value
2024-02-15T00:00:35.478Z,100021.56
2024-02-15T00:03:03.215Z,100016.25
2024-02-15T00:05:30.965Z,100012.75
2024-02-15T00:07:58.653Z,100014.44
2024-02-15T00:10:26.600Z,100017.22
2024-02-15T00:12:54.190Z,100017.22
2024-02-15T00:15:21.864Z,100024.25
2024-02-15T00:17:49.685Z,100023.41
2024-02-15T00:20:18.971Z,100022.44
2024-02-15T00:22:46.610Z,100025.97
2024-02-15T00:25:15.202Z,100022.44
2024-02-15T00:27:42.827Z,100029.47
2024-02-15T00:30:10.984Z,100027.66
2024-02-15T00:32:39.426Z,100026.78
2024-02-15T00:35:09.072Z,100020.63
2024-02-15T00:37:37.329Z,100031.31
2024-02-15T00:40:05.493Z,100025.97
2024-02-15T00:42:34.012Z,100025.00
2024-02-15T00:45:01.714Z,100027.66
2024-02-15T00:47:29.795Z,100028.47
2024-02-15T00:49:57.662Z,100032.00
2024-02-15T00:52:25.297Z,100025.00
2024-02-15T00:54:52.937Z,100030.31
2024-02-15T00:57:20.484Z,100032.00
2024-02-15T00:59:48.938Z,100032.00
2024-02-15T01:02:16.578Z,100040.72
2024-02-15T01:04:46.624Z,100038.06
2024-02-15T01:07:14.694Z,100043.41
2024-02-15T01:09:42.363Z,100039.03
2024-02-15T01:12:11.521Z,100036.38
2024-02-15T01:14:39.307Z,100039.75
2024-02-15T01:17:07.041Z,100039.75
2024-02-15T01:19:34.636Z,100039.75
2024-02-15T01:22:02.238Z,100041.44
2024-02-15T01:24:31.589Z,100042.28
2024-02-15T01:26:59.628Z,100044.97
2024-02-15T01:29:27.308Z,100038.66
2024-02-15T01:31:55.044Z,100044.00
2024-02-15T01:34:22.880Z,100043.00
2024-02-15T01:36:51.241Z,100040.34
2024-02-15T01:39:18.908Z,100038.53
2024-02-15T01:41:48.373Z,100035.88
2024-02-15T01:44:15.977Z,100041.19
2024-02-15T01:46:44.741Z,100032.22
2024-02-15T01:49:13.156Z,100030.53
2024-02-15T01:51:42.059Z,100033.19
2024-02-15T01:54:10.314Z,100030.53
2024-02-15T01:56:38.017Z,100038.53
2024-02-15T01:59:05.637Z,100032.22
2024-02-15T02:01:33.689Z,100034.03
2024-02-15T02:04:01.344Z,100031.34
2024-02-15T02:06:28.929Z,100034.88
2024-02-15T02:08:57.683Z,100026.88
2024-02-15T02:11:25.684Z,100032.09
2024-02-15T02:13:54.020Z,100029.44
2024-02-15T02:16:21.597Z,100025.91
2024-02-15T02:18:49.323Z,100026.75
2024-02-15T02:21:16.981Z,100017.03
2024-02-15T02:23:44.651Z,100010.84
2024-02-15T02:26:12.315Z,100008.19
2024-02-15T02:28:39.836Z,100013.66
2024-02-15T02:31:07.457Z,100007.47
2024-02-15T02:33:36.302Z,100006.63
2024-02-15T02:36:04.118Z,100005.75
2024-02-15T02:38:31.804Z,100004.94
2024-02-15T02:40:59.375Z,100003.38
2024-02-15T02:43:26.956Z,100001.56
2024-02-15T02:45:54.596Z,100002.50
2024-02-15T02:48:22.432Z,99999.84
2024-02-15T02:50:50.119Z,99994.38
2024-02-15T02:53:17.776Z,99991.72
2024-02-15T02:55:45.624Z,99988.06
2024-02-15T02:58:14.087Z,99990.72
2024-02-15T03:00:41.772Z,99978.25
2024-02-15T03:03:10.590Z,99977.38
2024-02-15T03:05:38.235Z,99984.69
2024-02-15T03:08:05.886Z,99978.50
2024-02-15T03:10:34.103Z,99986.50
2024-02-15T03:13:01.640Z,99983.13
2024-02-15T03:15:29.285Z,99990.03
2024-02-15T03:17:56.901Z,99980.78
2024-02-15T03:20:25.402Z,99965.50
2024-02-15T03:22:53.781Z,99972.41
2024-02-15T03:25:25.117Z,99973.22
2024-02-15T03:27:54.330Z,99965.09
2024-02-15T03:30:22.098Z,99962.31
2024-02-15T03:32:51.389Z,99969.34
2024-02-15T03:35:18.973Z,99965.56
2024-02-15T03:37:47.019Z,99959.47
2024-02-15T03:40:15.668Z,99955.28
2024-02-15T03:42:43.284Z,99955.53
2024-02-15T03:45:12.173Z,99966.59
2024-02-15T03:47:39.924Z,99957.13
2024-02-15T03:50:07.530Z,99956.44
2024-02-15T03:52:35.262Z,99959.38
2024-02-15T03:55:03.273Z,99956.94
2024-02-15T03:57:30.812Z,99957.34
2024-02-15T04:00:00.110Z,99962.94
2024-02-15T04:02:28.157Z,99961.09
2024-02-15T04:04:56.184Z,99957.34
2024-02-15T04:07:23.974Z,99960.75
2024-02-15T04:09:51.529Z,99952.34
2024-02-15T04:12:19.108Z,99955.31
2024-02-15T04:14:47.857Z,99956.78
2024-02-15T04:17:18.165Z,99959.75
2024-02-15T04:19:46.739Z,99955.72
2024-02-15T04:22:17.523Z,99952.53
2024-02-15T04:24:46.677Z,99961.94
2024-02-15T04:27:15.085Z,99951.84
2024-02-15T04:29:45.589Z,99953.41
2024-02-15T04:32:13.522Z,99952.44
2024-02-15T04:34:41.370Z,99948.81
2024-02-15T04:37:09.267Z,99943.47
2024-02-15T04:39:37.121Z,99954.16
2024-02-15T04:42:06.210Z,99937.13
2024-02-15T04:44:36.602Z,99938.69
2024-02-15T04:47:05.236Z,99942.06
2024-02-15T04:49:32.918Z,99933.22
2024-02-15T04:52:03.567Z,99940.22
2024-02-15T04:54:32.171Z,99937.56
2024-02-15T04:56:59.762Z,99933.91
2024-02-15T04:59:27.555Z,99932.97
2024-02-15T05:01:55.089Z,99935.63
2024-02-15T05:04:22.608Z,99935.75
2024-02-15T05:06:50.794Z,99933.22
2024-02-15T05:09:19.615Z,99945.00
2024-02-15T05:11:49.385Z,99931.81
2024-02-15T05:14:20.565Z,99938.13
2024-02-15T05:16:49.215Z,99938.25
2024-02-15T05:19:17.053Z,99937.38
2024-02-15T05:21:46.038Z,99933.03
2024-02-15T05:24:14.965Z,99941.03
2024-02-15T05:26:43.828Z,99927.69
2024-02-15T05:29:12.503Z,99934.00
2024-02-15T05:31:41.258Z,99942.03
2024-02-15T05:34:13.105Z,99931.47
2024-02-15T05:36:41.023Z,99931.47
2024-02-15T05:39:08.817Z,99934.13
2024-02-15T05:41:36.588Z,99934.28
2024-02-15T05:44:06.236Z,99935.25
2024-02-15T05:46:34.945Z,99925.53
2024-02-15T05:49:03.628Z,99930.06
2024-02-15T05:51:32.439Z,99934.28
2024-02-15T05:54:00.738Z,99928.94
2024-02-15T05:56:30.543Z,99928.94
2024-02-15T05:58:58.435Z,99932.44
2024-02-15T06:01:26.231Z,99918.13
2024-02-15T06:03:56.793Z,99918.97
2024-02-15T06:06:24.809Z,99908.28
2024-02-15T06:08:52.548Z,99902.97
2024-02-15T06:11:21.289Z,99909.00
2024-02-15T06:13:49.049Z,99905.34
2024-02-15T06:16:16.650Z,99913.34
2024-02-15T06:18:44.365Z,99917.59
2024-02-15T06:21:12.673Z,99913.09
2024-02-15T06:23:40.346Z,99912.13
2024-02-15T06:26:07.938Z,99910.28
2024-02-15T06:28:52.884Z,99912.25
2024-02-15T06:31:38.219Z,99916.88
2024-02-15T06:34:23.421Z,99910.69
2024-02-15T06:37:17.035Z,99909.13
2024-02-15T06:39:46.274Z,99916.31
2024-02-15T06:42:16.267Z,99915.59
2024-02-15T06:44:43.853Z,99926.28
2024-02-15T06:47:12.138Z,99926.41
2024-02-15T06:49:42.119Z,99936.22
2024-02-15T06:52:10.281Z,99937.34
2024-02-15T06:54:38.021Z,99935.63
2024-02-15T06:57:05.833Z,99947.47
2024-02-15T06:59:34.010Z,99941.38
2024-02-15T07:02:01.761Z,99943.47
2024-02-15T07:04:29.616Z,99940.94
2024-02-15T07:06:58.299Z,99946.41
2024-02-15T07:09:26.231Z,99952.59
2024-02-15T07:11:53.800Z,99954.53
2024-02-15T07:14:21.939Z,99949.34
2024-02-15T07:16:50.475Z,99946.81
2024-02-15T07:19:19.106Z,99945.13
2024-02-15T07:21:48.060Z,99946.09
2024-02-15T07:24:16.005Z,99952.38
2024-02-15T07:26:43.654Z,99948.78
2024-02-15T07:29:12.169Z,99955.78
2024-02-15T07:31:40.080Z,99955.78
2024-02-15T07:34:08.024Z,99943.28
2024-02-15T07:36:36.929Z,99948.50
2024-02-15T07:39:05.203Z,99949.34
2024-02-15T07:41:34.537Z,99949.19
2024-02-15T07:44:02.788Z,99944.72
2024-02-15T07:46:30.473Z,99942.88
2024-02-15T07:48:58.563Z,99949.94
2024-02-15T07:51:26.477Z,99949.94
2024-02-15T07:53:54.323Z,99955.28
2024-02-15T07:56:21.942Z,99952.59
2024-02-15T07:58:52.881Z,99944.59
2024-02-15T08:01:23.029Z,99945.44
2024-02-15T08:03:50.998Z,99950.75
2024-02-15T08:06:18.949Z,99938.13
2024-02-15T08:08:47.209Z,99935.34
2024-02-15T08:11:16.926Z,99935.06
2024-02-15T08:13:44.595Z,99930.31
2024-02-15T08:16:13.409Z,99927.22
2024-02-15T08:18:41.375Z,99902.25
2024-02-15T08:21:09.111Z,99898.59
2024-02-15T08:23:36.866Z,99894.09
2024-02-15T08:26:04.460Z,99883.41
2024-02-15T08:28:32.058Z,99884.38
2024-02-15T08:30:59.969Z,99883.69
2024-02-15T08:33:30.060Z,99876.78
2024-02-15T08:35:58.004Z,99876.09
2024-02-15T08:38:25.942Z,99876.09
2024-02-15T08:40:53.569Z,99886.75
2024-02-15T08:43:21.600Z,99886.47
2024-02-15T08:45:49.477Z,99885.38
2024-02-15T08:48:17.221Z,99893.84
2024-02-15T08:50:47.045Z,99884.44
2024-02-15T08:53:16.784Z,99881.25
2024-02-15T08:55:44.425Z,99885.75
2024-02-15T08:58:12.025Z,99879.03
2024-02-15T09:00:45.743Z,99891.97
2024-02-15T09:03:13.584Z,99878.50
2024-02-15T09:05:42.124Z,99884.69
2024-02-15T09:08:10.171Z,99886.38
2024-02-15T09:10:40.439Z,99887.19
2024-02-15T09:13:08.518Z,99888.06
2024-02-15T09:15:36.879Z,99888.06
2024-02-15T09:18:04.595Z,99890.59
2024-02-15T09:20:32.845Z,99897.63
2024-02-15T09:23:08.773Z,99899.16
2024-02-15T09:25:37.749Z,99898.91
2024-02-15T09:28:05.800Z,99896.09
2024-02-15T09:30:34.671Z,99895.13
2024-02-15T09:33:02.384Z,99890.59
2024-02-15T09:35:31.291Z,99889.63
2024-02-15T09:37:59.030Z,99889.50
2024-02-15T09:40:27.889Z,99882.34
2024-02-15T09:42:55.749Z,99892.88
2024-02-15T09:45:26.406Z,99893.03
2024-02-15T09:47:55.173Z,99892.28
2024-02-15T09:50:23.481Z,99896.69
2024-02-15T09:52:51.029Z,99888.78
2024-02-15T09:55:18.758Z,99893.03
2024-02-15T09:57:47.830Z,99888.25
2024-02-15T10:00:16.991Z,99885.88
2024-02-15T10:02:45.961Z,99875.22
2024-02-15T10:05:14.231Z,99888.88
2024-02-15T10:07:42.241Z,99884.78
2024-02-15T10:10:09.821Z,99890.44
2024-02-15T10:12:37.527Z,99877.66
2024-02-15T10:15:08.785Z,99887.06
2024-02-15T10:17:37.616Z,99883.84
2024-02-15T10:20:05.464Z,99882.41
2024-02-15T10:22:33.306Z,99877.50
2024-02-15T10:25:01.080Z,99867.63
2024-02-15T10:27:30.315Z,99870.44
2024-02-15T10:29:58.467Z,99872.25
2024-02-15T10:32:28.414Z,99868.56
2024-02-15T10:34:56.217Z,99864.88
2024-02-15T10:37:24.818Z,99867.56
2024-02-15T10:39:52.986Z,99848.50
2024-02-15T10:42:20.965Z,99843.69
2024-02-15T10:44:49.119Z,99859.63
2024-02-15T10:47:16.825Z,99854.72
2024-02-15T10:49:46.783Z,99850.50
2024-02-15T10:52:16.617Z,99853.75
2024-02-15T10:54:44.965Z,99856.88
2024-02-15T10:57:12.643Z,99853.63
2024-02-15T10:59:42.613Z,99857.16
2024-02-15T11:02:10.586Z,99848.13
2024-02-15T11:04:38.289Z,99855.88
2024-02-15T11:07:07.932Z,99851.94
2024-02-15T11:09:37.588Z,99854.03
2024-02-15T11:12:05.311Z,99844.44
2024-02-15T11:14:33.950Z,99846.09
2024-02-15T11:17:03.974Z,99845.50
2024-02-15T11:19:31.685Z,99834.06
2024-02-15T11:21:59.425Z,99842.19
2024-02-15T11:24:27.282Z,99834.13
2024-02-15T11:26:55.134Z,99836.03
2024-02-15T11:29:23.581Z,99836.31
2024-02-15T11:31:51.375Z,99838.22
2024-02-15T11:34:19.208Z,99833.94
2024-02-15T11:36:47.522Z,99827.81
2024-02-15T11:39:15.666Z,99826.06
2024-02-15T11:41:43.518Z,99820.94
2024-02-15T11:44:11.315Z,99807.09
2024-02-15T11:46:40.509Z,99818.19
2024-02-15T11:49:08.812Z,99811.69
2024-02-15T11:51:44.257Z,99815.91
2024-02-15T11:54:13.198Z,99810.53
2024-02-15T11:56:45.023Z,99805.47
2024-02-15T11:59:20.233Z,99805.78
2024-02-15T12:02:05.462Z,99807.78
2024-02-15T12:04:53.352Z,99803.41
2024-02-15T12:07:38.546Z,99808.91
2024-02-15T12:10:23.758Z,99801.56
2024-02-15T12:13:08.819Z,99802.28
2024-02-15T12:15:53.934Z,99792.38
2024-02-15T12:18:39.372Z,99789.38
2024-02-15T12:21:07.582Z,99789.06
2024-02-15T12:23:36.947Z,99788.94
2024-02-15T12:26:05.207Z,99785.06
2024-02-15T12:28:33.027Z,99785.59
2024-02-15T12:31:00.768Z,99778.94
2024-02-15T12:33:28.897Z,99782.16
2024-02-15T12:35:57.056Z,99775.34
2024-02-15T12:38:24.841Z,99774.06
2024-02-15T12:40:52.957Z,99763.53
2024-02-15T12:43:20.841Z,99772.69
2024-02-15T12:45:48.550Z,99759.69
2024-02-15T12:48:17.043Z,99755.63
2024-02-15T12:50:45.274Z,99747.00
2024-02-15T12:53:12.964Z,99747.91
2024-02-15T12:55:40.719Z,99747.75
2024-02-15T12:58:10.145Z,99752.78
2024-02-15T13:00:41.413Z,99742.66
2024-02-15T13:03:11.679Z,99749.56
2024-02-15T13:05:40.372Z,99745.38
2024-02-15T13:08:12.066Z,99743.69
2024-02-15T13:10:41.058Z,99735.09
2024-02-15T13:13:10.999Z,99740.84
2024-02-15T13:15:40.028Z,99731.91
2024-02-15T13:18:11.781Z,99730.94
2024-02-15T13:20:40.285Z,99733.28
2024-02-15T13:23:11.052Z,99726.56
2024-02-15T13:25:41.221Z,99727.19
2024-02-15T13:28:11.700Z,99723.00
2024-02-15T13:30:39.480Z,99716.44
2024-02-15T13:33:07.812Z,99711.88
2024-02-15T13:35:35.818Z,99695.59
2024-02-15T13:38:03.775Z,99696.44
2024-02-15T13:40:33.769Z,99699.97
2024-02-15T13:43:01.569Z,99692.22
2024-02-15T13:45:30.948Z,99689.16
2024-02-15T13:47:58.918Z,99686.28
2024-02-15T13:50:26.815Z,99687.25
2024-02-15T13:52:54.744Z,99680.72
2024-02-15T13:55:22.984Z,99678.72
2024-02-15T13:57:50.796Z,99677.38
2024-02-15T14:00:23.979Z,99672.66
2024-02-15T14:02:51.961Z,99678.78
2024-02-15T14:05:21.296Z,99667.69
2024-02-15T14:07:49.261Z,99675.75
2024-02-15T14:10:19.540Z,99667.84
2024-02-15T14:12:47.408Z,99661.63
2024-02-15T14:15:15.388Z,99671.22
2024-02-15T14:17:43.363Z,99661.97
2024-02-15T14:20:14.834Z,99665.16
2024-02-15T14:22:43.003Z,99662.31
2024-02-15T14:25:12.630Z,99655.91
2024-02-15T14:27:40.650Z,99668.00
2024-02-15T14:30:26.168Z,99666.47
2024-02-15T14:33:05.867Z,99663.97
2024-02-15T14:35:36.144Z,99655.56
2024-02-15T14:38:06.734Z,99654.50
2024-02-15T14:40:45.098Z,99658.50
2024-02-15T14:45:45.942Z,99650.25
2024-02-15T14:48:14.703Z,99666.03
2024-02-15T14:50:43.000Z,99662.31
2024-02-15T14:53:10.810Z,99656.75
2024-02-15T14:55:40.801Z,99667.31
2024-02-15T14:58:13.173Z,99662.59
2024-02-15T15:00:43.768Z,99657.84
2024-02-15T15:03:13.294Z,99663.72
2024-02-15T15:05:59.173Z,99645.25
2024-02-15T15:08:44.456Z,99649.25
2024-02-15T15:11:29.735Z,99652.28
2024-02-15T15:13:57.577Z,99640.84
2024-02-15T15:16:26.728Z,99642.03
2024-02-15T15:18:55.044Z,99642.16
2024-02-15T15:21:24.553Z,99640.66
2024-02-15T15:23:53.497Z,99644.34
2024-02-15T15:26:22.239Z,99647.31
2024-02-15T15:28:51.328Z,99652.69
2024-02-15T15:31:21.788Z,99642.97
2024-02-15T15:33:51.107Z,99642.13
2024-02-15T15:36:21.247Z,99647.50
2024-02-15T15:38:49.580Z,99635.91
2024-02-15T15:41:18.712Z,99629.72
2024-02-15T15:43:47.655Z,99618.28
2024-02-15T15:46:15.658Z,99608.03
2024-02-15T15:48:43.662Z,99607.38
2024-02-15T15:51:12.192Z,99600.47
2024-02-15T15:53:40.669Z,99597.41
2024-02-15T15:56:09.178Z,99602.25
2024-02-15T15:58:37.041Z,99592.69
2024-02-15T16:01:05.890Z,99583.94
2024-02-15T16:03:34.197Z,99593.84
2024-02-15T16:06:02.176Z,99595.00
2024-02-15T16:08:30.362Z,99591.31
2024-02-15T16:10:59.433Z,99581.44
2024-02-15T16:13:28.047Z,99582.25
2024-02-15T16:15:57.187Z,99585.94
2024-02-15T16:18:25.595Z,99593.31
2024-02-15T16:20:55.302Z,99587.56
2024-02-15T16:23:23.909Z,99584.38
2024-02-15T16:25:53.123Z,99573.44
2024-02-15T16:28:20.993Z,99560.66
2024-02-15T16:30:49.700Z,99555.94
2024-02-15T16:33:17.966Z,99542.34
2024-02-15T16:35:47.142Z,99541.28
2024-02-15T16:38:17.581Z,99542.63
2024-02-15T16:40:46.230Z,99543.78
2024-02-15T16:43:13.976Z,99545.06
2024-02-15T16:45:42.927Z,99558.47
2024-02-15T16:48:13.193Z,99561.69
2024-02-15T16:50:43.132Z,99573.06
2024-02-15T16:53:11.200Z,99580.81
2024-02-15T16:55:39.145Z,99578.28
2024-02-15T16:58:09.798Z,99578.28
2024-02-15T17:00:37.851Z,99581.13
2024-02-15T17:03:07.086Z,99583.13
2024-02-15T17:05:36.682Z,99576.22
2024-02-15T17:08:08.202Z,99574.56
2024-02-15T17:10:37.604Z,99582.91
2024-02-15T17:13:07.451Z,99587.41
2024-02-15T17:15:36.622Z,99583.22
2024-02-15T17:18:04.927Z,99588.41
2024-02-15T17:20:32.985Z,99581.25
2024-02-15T17:23:00.962Z,99585.75
2024-02-15T17:25:28.974Z,99585.88
2024-02-15T17:27:57.694Z,99591.56
2024-02-15T17:30:26.383Z,99588.22
2024-02-15T17:32:55.169Z,99589.31
2024-02-15T17:35:23.668Z,99586.84
2024-02-15T17:37:51.728Z,99587.91
2024-02-15T17:40:20.061Z,99587.56
2024-02-15T17:42:49.010Z,99588.00
2024-02-15T17:45:18.324Z,99585.78
2024-02-15T17:47:47.425Z,99585.53
2024-02-15T17:50:17.087Z,99585.44
2024-02-15T17:52:45.405Z,99591.41
2024-02-15T17:55:15.220Z,99584.81
2024-02-15T17:57:43.004Z,99584.44
2024-02-15T18:00:14.901Z,99585.13
2024-02-15T18:02:44.807Z,99572.75
2024-02-15T18:05:12.779Z,99571.75
2024-02-15T18:07:40.844Z,99565.09
2024-02-15T18:10:11.305Z,99567.78
2024-02-15T18:12:39.640Z,99563.41
2024-02-15T18:15:08.365Z,99557.91
2024-02-15T18:17:36.232Z,99565.63
2024-02-15T18:20:04.046Z,99554.47
2024-02-15T18:22:32.126Z,99546.28
2024-02-15T18:25:01.572Z,99538.78
2024-02-15T18:27:29.417Z,99526.25
2024-02-15T18:29:57.416Z,99531.09
2024-02-15T18:32:25.828Z,99529.38
2024-02-15T18:34:53.559Z,99526.19
2024-02-15T18:37:22.255Z,99515.09
2024-02-15T18:39:51.022Z,99518.75
2024-02-15T18:42:22.371Z,99503.53
2024-02-15T18:44:50.287Z,99499.72
2024-02-15T18:47:18.171Z,99498.88
2024-02-15T18:49:53.452Z,99497.56
2024-02-15T18:52:24.759Z,99488.53
2024-02-15T18:54:53.542Z,99494.88
2024-02-15T18:57:21.962Z,99491.38
2024-02-15T18:59:49.973Z,99490.53
2024-02-15T19:02:20.033Z,99492.22
2024-02-15T19:04:48.022Z,99497.56
2024-02-15T19:07:15.947Z,99495.88
2024-02-15T19:09:43.810Z,99491.69
2024-02-15T19:12:12.500Z,99495.34
2024-02-15T19:14:40.545Z,99498.72
2024-02-15T19:17:08.602Z,99500.91
2024-02-15T19:19:36.738Z,99488.78
2024-02-15T19:22:04.799Z,99487.47
2024-02-15T19:24:32.696Z,99488.13
2024-02-15T19:27:00.644Z,99484.63
2024-02-15T19:29:29.663Z,99491.28
2024-02-15T19:31:57.477Z,99494.81
2024-02-15T19:34:28.004Z,99481.44
2024-02-15T19:37:04.570Z,99482.56
2024-02-15T19:39:39.908Z,99479.50
2024-02-15T19:42:08.566Z,99478.81
2024-02-15T19:44:36.322Z,99474.16
2024-02-15T19:47:05.410Z,99475.16
2024-02-15T19:49:35.196Z,99479.50
2024-02-15T19:52:03.650Z,99475.31
2024-02-15T19:54:33.099Z,99469.78
2024-02-15T19:57:02.109Z,99474.47
2024-02-15T19:59:30.438Z,99462.56
2024-02-15T20:01:59.029Z,99463.84
2024-02-15T20:04:26.964Z,99461.31
2024-02-15T20:06:54.919Z,99450.47
2024-02-15T20:09:28.422Z,99469.06
2024-02-15T20:12:00.281Z,99461.03
2024-02-15T20:14:30.217Z,99471.94
2024-02-15T20:16:58.290Z,99464.97
2024-02-15T20:19:27.369Z,99465.81
2024-02-15T20:21:55.173Z,99467.38
2024-02-15T20:24:23.060Z,99471.84
2024-02-15T20:26:53.373Z,99470.03
2024-02-15T20:29:21.804Z,99470.72
2024-02-15T20:31:49.818Z,99464.50
2024-02-15T20:34:17.851Z,99463.16
2024-02-15T20:36:46.148Z,99467.44
2024-02-15T20:39:14.027Z,99468.50
2024-02-15T20:41:41.871Z,99467.31
2024-02-15T20:44:11.903Z,99463.91
2024-02-15T20:46:39.753Z,99464.56
2024-02-15T20:49:08.166Z,99461.94
2024-02-15T20:51:36.799Z,99454.97
2024-02-15T20:54:04.734Z,99452.69
2024-02-15T20:56:35.089Z,99439.78
2024-02-15T20:59:02.880Z,99443.72
2024-02-15T21:01:31.135Z,99444.03
2024-02-15T21:03:59.567Z,99443.63
2024-02-15T21:06:31.062Z,99441.56
2024-02-15T21:08:59.651Z,99442.47
2024-02-15T21:11:27.736Z,99435.22
2024-02-15T21:13:55.714Z,99443.78
2024-02-15T21:16:23.821Z,99438.88
2024-02-15T21:18:54.425Z,99436.94
2024-02-15T21:21:23.531Z,99432.19
2024-02-15T21:23:51.705Z,99424.03
2024-02-15T21:26:19.645Z,99425.97
2024-02-15T21:28:48.109Z,99423.13
2024-02-15T21:31:16.741Z,99421.19
2024-02-15T21:33:44.800Z,99404.84
2024-02-15T21:36:12.657Z,99409.19
2024-02-15T21:38:40.442Z,99412.16
2024-02-15T21:41:08.557Z,99405.97
2024-02-15T21:43:36.422Z,99400.25
2024-02-15T21:46:04.156Z,99389.69
2024-02-15T21:48:32.102Z,99393.06
2024-02-15T21:50:59.962Z,99386.44
2024-02-15T21:53:28.255Z,99395.41
2024-02-15T21:55:56.838Z,99383.06
2024-02-15T21:58:24.609Z,99390.94
2024-02-15T22:00:52.316Z,99389.13
2024-02-15T22:03:20.166Z,99395.97
2024-02-15T22:05:48.149Z,99386.53
2024-02-15T22:08:15.853Z,99373.00
2024-02-15T22:10:43.693Z,99361.19
2024-02-15T22:13:11.897Z,99367.34
2024-02-15T22:15:39.771Z,99374.81
2024-02-15T22:18:07.886Z,99369.78
2024-02-15T22:20:36.504Z,99373.53
2024-02-15T22:23:04.879Z,99362.50
2024-02-15T22:25:32.729Z,99362.44
2024-02-15T22:28:00.366Z,99374.47
2024-02-15T22:30:28.183Z,99369.38
2024-02-15T22:32:57.169Z,99368.59
2024-02-15T22:35:25.763Z,99375.66
2024-02-15T22:37:53.430Z,99366.72
2024-02-15T22:40:21.089Z,99361.03
2024-02-15T22:42:48.741Z,99363.41
2024-02-15T22:45:16.360Z,99367.31
2024-02-15T22:47:44.959Z,99360.13
2024-02-15T22:50:12.831Z,99361.19
2024-02-15T22:52:40.827Z,99364.59
2024-02-15T22:55:08.554Z,99354.72
2024-02-15T22:57:36.701Z,99353.91
2024-02-15T23:00:06.800Z,99353.00
2024-02-15T23:02:36.584Z,99342.84
2024-02-15T23:05:05.339Z,99345.91
2024-02-15T23:07:33.176Z,99343.75
2024-02-15T23:10:00.938Z,99351.44
2024-02-15T23:12:28.708Z,99351.09
2024-02-15T23:14:56.563Z,99356.16
2024-02-15T23:17:28.399Z,99348.47
2024-02-15T23:19:56.065Z,99354.34
2024-02-15T23:22:23.775Z,99361.75
2024-02-15T23:24:51.905Z,99358.41
2024-02-15T23:27:19.540Z,99361.41
2024-02-15T23:29:47.246Z,99366.06
2024-02-15T23:32:15.717Z,99368.06
2024-02-15T23:34:44.942Z,99369.38
2024-02-15T23:37:30.083Z,99370.72
2024-02-15T23:40:15.515Z,99374.88
2024-02-15T23:42:43.249Z,99377.19
2024-02-15T23:45:11.644Z,99378.34
2024-02-15T23:47:39.555Z,99378.34
2024-02-15T23:50:07.340Z,99378.47
2024-02-15T23:52:38.234Z,99369.63
2024-02-15T23:55:05.869Z,99377.09
2024-02-15T23:57:33.736Z,99362.88
